Time;durP1;ratioP1;P1;durP2;ratioP2;P2;SDS_P1;SDS_P2;PMS_P1;PMS_P2;Temp;Humidity;BMP_temperature;BMP_pressure;BME280_temperature;BME280_humidity;BME280_pressure;Samples;Min_cycle;Max_cycle;Signal;HPM_P1;HPM_P2
2021/09/26 00:01:09;;;;;;;12.28;7.55;;;;;;;12.52;77.39;98278.31;1776041;81;21119;-80
2021/09/26 00:03:36;;;;;;;11.53;7.22;;;;;;;12.56;77.42;98279.08;1779478;81;20957;-80
2021/09/26 00:06:04;;;;;;;12.80;7.55;;;;;;;12.60;77.45;98279.39;1782950;80;21458;-80
2021/09/26 00:08:30;;;;;;;10.90;7.62;;;;;;;12.64;77.49;98274.38;1784268;80;21002;-81
2021/09/26 00:10:57;;;;;;;12.23;7.85;;;;;;;12.67;77.79;98271.60;1784374;80;21452;-81
2021/09/26 00:13:23;;;;;;;10.30;7.17;;;;;;;12.70;77.99;98275.95;1754662;80;20990;-81
2021/09/26 00:15:50;;;;;;;11.48;7.37;;;;;;;12.74;78.00;98270.09;1757264;79;21009;-81
2021/09/26 00:18:16;;;;;;;9.85;7.08;;;;;;;12.80;78.02;98276.52;1753483;82;21096;-80
2021/09/26 00:20:43;;;;;;;8.60;6.97;;;;;;;12.85;78.06;98276.34;1753531;82;20990;-80
2021/09/26 00:23:09;;;;;;;10.70;6.72;;;;;;;12.90;78.14;98276.61;1753469;81;21097;-81
2021/09/26 00:25:36;;;;;;;11.70;6.75;;;;;;;12.97;78.07;98276.39;1723612;83;21006;-80
2021/09/26 00:28:02;;;;;;;8.65;6.37;;;;;;;13.00;78.07;98276.29;1723564;83;21010;-81
2021/09/26 00:30:29;;;;;;;10.30;6.95;;;;;;;13.02;78.13;98278.42;1723640;83;21002;-80
2021/09/26 00:32:55;;;;;;;9.13;6.55;;;;;;;13.04;77.96;98284.09;1723496;83;21057;-81
2021/09/26 00:35:23;;;;;;;14.55;7.37;;;;;;;13.03;78.14;98273.05;1772392;81;21043;-80
2021/09/26 00:37:50;;;;;;;11.80;7.58;;;;;;;12.96;79.00;98276.87;1779388;80;21041;-80
2021/09/26 00:40:17;;;;;;;10.90;7.40;;;;;;;12.98;78.15;98275.45;1756253;80;21478;-80
2021/09/26 00:42:43;;;;;;;10.45;7.00;;;;;;;12.96;78.02;98274.20;1753580;80;20969;-80
2021/09/26 00:45:11;;;;;;;13.08;6.90;;;;;;;12.96;78.70;98274.20;1748579;81;20988;-80
2021/09/26 00:47:38;;;;;;;11.20;7.10;;;;;;;12.90;78.46;98266.41;1766438;81;20975;-80
2021/09/26 00:50:09;;;;;;;12.35;7.40;;;;;;;12.88;78.36;98269.13;1775593;81;20974;-80
2021/09/26 00:52:41;;;;;;;9.73;6.87;;;;;;;12.90;77.96;98275.72;1771331;81;21016;-80
2021/09/26 00:55:09;;;;;;;9.33;6.62;;;;;;;12.87;78.40;98264.73;1765345;81;21023;-80
2021/09/26 00:57:35;;;;;;;11.78;7.25;;;;;;;12.85;77.87;98267.03;1765155;80;20977;-80
2021/09/26 01:00:05;;;;;;;12.13;7.72;;;;;;;12.82;77.69;98268.02;1765383;80;21036;-80
2021/09/26 01:02:31;;;;;;;10.48;7.33;;;;;;;12.73;79.69;98268.33;1761730;81;21049;-80
2021/09/26 01:04:59;;;;;;;10.98;7.37;;;;;;;12.67;78.64;98267.61;1757161;80;21426;-80
2021/09/26 01:07:37;;;;;;;10.68;7.15;;;;;;;12.66;78.95;98271.20;1765216;81;21430;-80
2021/09/26 01:10:18;;;;;;;11.68;7.60;;;;;;;12.63;78.51;98264.64;1764965;81;21024;-81
2021/09/26 01:13:02;;;;;;;12.18;7.95;;;;;;;12.63;78.28;98277.94;1774658;81;21002;-81
2021/09/26 01:15:55;;;;;;;10.50;7.65;;;;;;;12.59;78.61;98278.98;1773081;81;21033;-80
2021/09/26 01:18:54;;;;;;;12.75;7.65;;;;;;;12.59;78.64;98286.97;1706730;82;21483;-81
2021/09/26 01:21:30;;;;;;;10.15;7.80;;;;;;;12.54;78.81;98273.80;1745038;82;20974;-80
2021/09/26 01:24:21;;;;;;;13.85;7.62;;;;;;;12.50;78.63;98276.63;1745138;82;21439;-81
2021/09/26 01:27:18;;;;;;;10.78;7.05;;;;;;;12.47;78.73;98277.60;1744977;82;21006;-81
2021/09/26 01:30:18;;;;;;;11.12;7.25;;;;;;;12.45;78.93;98280.75;1763463;81;21030;-80
2021/09/26 01:33:07;;;;;;;13.30;7.62;;;;;;;12.43;78.68;98281.27;1759945;81;21073;-81
2021/09/26 01:35:38;;;;;;;9.38;7.22;;;;;;;12.40;78.35;98279.59;1745154;81;20963;-80
2021/09/26 01:38:29;;;;;;;11.05;7.65;;;;;;;12.39;78.65;98283.62;1752521;82;21180;-79
2021/09/26 01:41:15;;;;;;;9.15;6.92;;;;;;;12.35;79.64;98285.52;1756605;81;20949;-80
2021/09/26 01:43:45;;;;;;;13.30;8.10;;;;;;;12.33;80.41;98277.18;1765275;80;20988;-80
2021/09/26 01:46:17;;;;;;;10.20;7.30;;;;;;;12.29;80.05;98280.37;1765132;80;21040;-81
2021/09/26 01:49:00;;;;;;;12.10;7.10;;;;;;;12.27;79.53;98281.77;1757724;81;20955;-81
2021/09/26 01:51:28;;;;;;;10.10;7.35;;;;;;;12.26;81.06;98285.33;1744979;82;21074;-80
2021/09/26 01:53:57;;;;;;;13.50;7.70;;;;;;;12.21;80.65;98287.73;1744934;82;21006;-80
2021/09/26 01:56:25;;;;;;;11.43;8.03;;;;;;;12.21;81.04;98289.91;1746322;81;21054;-79
2021/09/26 01:58:53;;;;;;;10.00;7.33;;;;;;;12.19;81.24;98278.48;1765175;81;21008;-81
2021/09/26 02:01:20;;;;;;;11.63;8.00;;;;;;;12.19;80.52;98279.81;1765206;81;21028;-81
2021/09/26 02:03:48;;;;;;;10.93;8.50;;;;;;;12.16;82.78;98279.05;1749106;81;21074;-80
2021/09/26 02:06:15;;;;;;;11.97;8.35;;;;;;;12.14;80.88;98281.74;1761160;80;21018;-80
2021/09/26 02:08:43;;;;;;;11.65;7.70;;;;;;;12.10;80.86;98294.70;1757881;81;21078;-80
2021/09/26 02:11:15;;;;;;;10.40;7.90;;;;;;;12.10;81.72;98282.30;1775577;81;20979;-80
2021/09/26 02:13:46;;;;;;;9.63;7.65;;;;;;;12.09;80.54;98281.02;1775361;81;21452;-81
2021/09/26 02:16:14;;;;;;;11.80;7.75;;;;;;;12.06;80.50;98283.31;1754566;81;21034;-81
2021/09/26 02:18:44;;;;;;;10.32;8.28;;;;;;;12.07;80.73;98275.75;1744672;82;21074;-80
2021/09/26 02:21:13;;;;;;;12.47;8.40;;;;;;;12.08;80.47;98280.14;1752579;82;21045;-80
2021/09/26 02:23:40;;;;;;;10.45;7.17;;;;;;;12.08;80.88;98285.93;1744661;82;21018;-81
2021/09/26 02:26:08;;;;;;;13.78;7.55;;;;;;;12.09;80.73;98292.97;1744811;82;21380;-80
2021/09/26 02:28:35;;;;;;;9.83;6.55;;;;;;;12.10;81.99;98290.27;1758833;80;21059;-80
2021/09/26 02:31:07;;;;;;;9.23;7.17;;;;;;;12.10;82.48;98288.06;1765243;81;21039;-80
2021/09/26 02:33:34;;;;;;;11.43;6.78;;;;;;;12.16;81.93;98289.67;1751256;81;21006;-80
2021/09/26 02:36:00;;;;;;;12.13;6.70;;;;;;;12.18;82.69;98291.36;1744922;81;21002;-80
2021/09/26 02:38:27;;;;;;;8.30;5.97;;;;;;;12.23;82.48;98296.52;1744810;82;21054;-79
2021/09/26 02:41:04;;;;;;;9.05;6.80;;;;;;;12.25;82.37;98288.91;1769372;80;21008;-81
2021/09/26 02:43:45;;;;;;;9.05;6.70;;;;;;;12.30;82.02;98291.44;1762559;80;21604;-81
2021/09/26 02:46:19;;;;;;;9.73;6.33;;;;;;;12.34;82.07;98293.53;1779456;80;20973;-80
2021/09/26 02:48:47;;;;;;;7.72;6.33;;;;;;;12.38;82.92;98288.53;1778930;80;21017;-80
2021/09/26 02:51:14;;;;;;;9.13;5.90;;;;;;;12.42;81.95;98291.50;1778176;80;20953;-80
2021/09/26 02:53:41;;;;;;;9.93;6.78;;;;;;;12.44;81.97;98289.65;1753310;82;21025;-80
2021/09/26 02:56:08;;;;;;;10.48;6.80;;;;;;;12.43;81.90;98292.35;1753364;81;21024;-81
2021/09/26 02:58:38;;;;;;;9.95;6.62;;;;;;;12.46;82.15;98297.58;1753248;82;21471;-80
2021/09/26 03:01:05;;;;;;;10.25;6.47;;;;;;;12.52;82.04;98293.39;1753894;81;20998;-80
2021/09/26 03:03:32;;;;;;;9.95;6.37;;;;;;;12.54;81.50;98291.53;1778247;80;21029;-81
2021/09/26 03:05:59;;;;;;;9.95;6.92;;;;;;;12.52;81.59;98292.94;1784431;80;21444;-81
2021/09/26 03:08:26;;;;;;;9.70;7.05;;;;;;;12.52;81.42;98288.95;1784187;80;20954;-81
2021/09/26 03:10:59;;;;;;;9.83;6.95;;;;;;;12.51;80.94;98288.52;1766775;80;20970;-81
2021/09/26 03:13:28;;;;;;;10.20;6.87;;;;;;;12.46;80.95;98285.14;1753440;82;21400;-81
2021/09/26 03:15:54;;;;;;;10.20;7.12;;;;;;;12.38;81.87;98281.41;1753230;81;21073;-81
2021/09/26 03:18:21;;;;;;;9.38;6.53;;;;;;;12.34;81.59;98285.08;1753204;82;21463;-80
2021/09/26 03:20:49;;;;;;;8.88;7.05;;;;;;;12.32;81.26;98284.72;1753259;82;21025;-80
2021/09/26 03:23:16;;;;;;;9.85;6.55;;;;;;;12.26;81.30;98280.48;1772045;81;20996;-81
2021/09/26 03:25:42;;;;;;;11.00;6.90;;;;;;;12.20;80.67;98282.02;1779313;81;21043;-81
2021/09/26 03:28:09;;;;;;;9.88;7.05;;;;;;;12.08;81.22;98276.16;1779768;80;21371;-81
2021/09/26 03:30:35;;;;;;;9.43;7.05;;;;;;;12.03;80.99;98290.48;1779507;80;21020;-81
2021/09/26 03:33:02;;;;;;;8.80;7.05;;;;;;;11.92;81.11;98289.00;1763896;80;20970;-81
2021/09/26 03:35:29;;;;;;;9.45;7.53;;;;;;;11.85;81.94;98292.33;1754182;81;20978;-81
2021/09/26 03:37:56;;;;;;;11.43;6.97;;;;;;;11.77;81.32;98291.67;1753513;82;21475;-81
2021/09/26 03:40:22;;;;;;;13.58;8.00;;;;;;;11.70;81.86;98292.30;1751514;82;21014;-81
2021/09/26 03:42:49;;;;;;;11.60;7.33;;;;;;;11.64;83.34;98288.95;1744993;82;21030;-81
2021/09/26 03:45:15;;;;;;;10.63;6.97;;;;;;;11.57;81.80;98289.59;1744939;82;20986;-81
2021/09/26 03:47:42;;;;;;;12.95;7.60;;;;;;;11.47;81.54;98289.84;1764309;81;20985;-81
2021/09/26 03:50:11;;;;;;;9.95;7.47;;;;;;;11.38;82.00;98278.64;1765358;81;20980;-81
2021/09/26 03:52:39;;;;;;;11.45;6.97;;;;;;;11.31;82.20;98282.80;1765161;81;21394;-81
2021/09/26 03:55:09;;;;;;;11.93;7.47;;;;;;;11.25;81.97;98285.60;1765305;81;21008;-81
2021/09/26 03:57:36;;;;;;;9.95;6.85;;;;;;;11.17;81.92;98285.81;1764368;81;20973;-81
2021/09/26 04:00:07;;;;;;;10.00;7.35;;;;;;;11.12;82.38;98284.22;1744777;82;21412;-80
2021/09/26 04:02:35;;;;;;;11.97;8.10;;;;;;;11.04;82.57;98281.78;1760705;81;21385;-80
2021/09/26 04:05:03;;;;;;;11.12;7.65;;;;;;;10.98;82.18;98288.55;1775051;81;21025;-80
2021/09/26 04:07:29;;;;;;;13.00;7.28;;;;;;;10.90;82.75;98289.64;1754443;81;20986;-81
2021/09/26 04:09:56;;;;;;;11.05;7.72;;;;;;;10.82;82.37;98290.28;1745064;82;21014;-80
2021/09/26 04:12:22;;;;;;;11.97;6.95;;;;;;;10.76;82.39;98289.13;1762632;81;21410;-80
2021/09/26 04:14:49;;;;;;;10.68;8.03;;;;;;;10.69;83.23;98297.68;1765229;81;21560;-80
2021/09/26 04:17:16;;;;;;;10.53;7.55;;;;;;;10.64;82.87;98295.16;1753781;80;20986;-80
2021/09/26 04:19:43;;;;;;;13.53;8.55;;;;;;;10.60;83.25;98294.81;1745066;82;20982;-80
2021/09/26 04:22:09;;;;;;;12.98;7.80;;;;;;;10.55;83.44;98305.52;1744971;82;21590;-80
2021/09/26 04:24:36;;;;;;;13.58;8.55;;;;;;;10.51;83.22;98303.84;1744919;82;21002;-80
2021/09/26 04:27:03;;;;;;;14.73;7.70;;;;;;;10.47;83.18;98303.97;1744944;82;21037;-80
2021/09/26 04:29:29;;;;;;;12.60;8.83;;;;;;;10.46;83.52;98304.88;1756297;81;21475;-80
2021/09/26 04:31:56;;;;;;;11.25;7.08;;;;;;;10.45;83.12;98314.59;1760411;81;21010;-80
2021/09/26 04:34:26;;;;;;;12.45;7.22;;;;;;;10.42;83.34;98318.16;1745010;82;21026;-80
2021/09/26 04:36:50;;;;;;;11.03;7.05;;;;;;;10.41;83.73;98312.89;1744498;82;21011;-80
2021/09/26 04:39:17;;;;;;;9.53;6.87;;;;;;;10.43;84.03;98313.74;1744765;82;21002;-80
2021/09/26 04:41:43;;;;;;;10.68;7.22;;;;;;;10.47;84.36;98319.42;1758376;81;21436;-80
2021/09/26 04:44:09;;;;;;;9.65;6.80;;;;;;;10.48;84.27;98317.19;1778288;81;21073;-80
2021/09/26 04:46:36;;;;;;;10.32;6.85;;;;;;;10.49;84.53;98318.03;1778487;81;21436;-81
2021/09/26 04:49:02;;;;;;;9.68;7.03;;;;;;;10.52;84.85;98316.65;1778472;80;21018;-80
2021/09/26 04:51:29;;;;;;;10.35;6.90;;;;;;;10.56;84.97;98323.63;1771742;80;21054;-80
2021/09/26 04:53:55;;;;;;;9.08;6.67;;;;;;;10.61;85.10;98315.55;1757998;81;20949;-80
2021/09/26 04:56:22;;;;;;;9.30;6.30;;;;;;;10.65;84.93;98317.22;1750838;82;20988;-80
2021/09/26 04:58:49;;;;;;;9.68;6.35;;;;;;;10.66;85.11;98316.30;1757160;81;20977;-81
2021/09/26 05:01:17;;;;;;;9.20;6.37;;;;;;;10.67;85.29;98321.57;1755489;81;21473;-81
2021/09/26 05:03:44;;;;;;;10.78;6.60;;;;;;;10.70;85.28;98314.00;1739263;82;21014;-81
2021/09/26 05:06:11;;;;;;;13.75;7.67;;;;;;;10.75;85.45;98316.08;1753528;80;21055;-80
2021/09/26 05:08:38;;;;;;;10.32;7.05;;;;;;;10.79;86.37;98319.52;1757222;82;20977;-80
2021/09/26 05:11:04;;;;;;;10.13;7.03;;;;;;;10.87;85.60;98315.38;1756810;81;21024;-80
2021/09/26 05:13:31;;;;;;;10.50;7.25;;;;;;;10.89;86.06;98313.09;1749201;81;20952;-81
2021/09/26 05:15:58;;;;;;;10.65;6.95;;;;;;;10.93;85.66;98310.75;1778354;81;21022;-81
2021/09/26 05:18:24;;;;;;;9.58;7.45;;;;;;;10.93;85.46;98311.23;1778506;81;21026;-81
2021/09/26 05:20:53;;;;;;;10.68;8.00;;;;;;;10.94;85.69;98309.86;1778658;81;21002;-81
2021/09/26 05:23:20;;;;;;;10.65;8.25;;;;;;;10.96;85.29;98318.64;1754144;80;21388;-81
2021/09/26 05:25:47;;;;;;;11.73;7.92;;;;;;;10.96;85.27;98325.27;1750911;82;21468;-81
2021/09/26 05:28:15;;;;;;;12.93;8.15;;;;;;;10.97;85.23;98332.78;1757263;81;21025;-81
2021/09/26 05:30:42;;;;;;;13.68;8.28;;;;;;;10.94;85.33;98323.13;1757112;81;20987;-81
2021/09/26 05:33:09;;;;;;;9.98;6.65;;;;;;;10.95;85.52;98326.19;1767066;81;21396;-81
2021/09/26 05:35:36;;;;;;;8.98;7.12;;;;;;;10.96;85.49;98324.39;1778405;81;21417;-81
2021/09/26 05:38:03;;;;;;;9.90;7.22;;;;;;;10.98;86.12;98330.98;1778506;81;20959;-81
2021/09/26 05:40:29;;;;;;;10.10;6.45;;;;;;;10.99;85.10;98334.05;1778420;79;20998;-81
2021/09/26 05:42:56;;;;;;;8.50;6.15;;;;;;;11.00;85.53;98335.81;1751518;81;21428;-81
2021/09/26 05:45:22;;;;;;;9.28;6.55;;;;;;;11.03;85.67;98335.71;1744878;82;20994;-80
2021/09/26 05:47:49;;;;;;;13.50;7.20;;;;;;;11.05;85.31;98329.93;1744844;82;21069;-80
2021/09/26 05:50:15;;;;;;;11.93;7.45;;;;;;;11.07;85.42;98336.94;1744898;82;20970;-81
2021/09/26 05:52:41;;;;;;;11.18;7.65;;;;;;;11.10;86.28;98334.66;1753483;81;21094;-81
2021/09/26 05:55:09;;;;;;;11.45;8.25;;;;;;;11.13;85.58;98331.05;1744872;82;21049;-81
2021/09/26 05:57:36;;;;;;;11.45;7.65;;;;;;;11.16;85.61;98323.87;1744782;82;21438;-81
2021/09/26 06:00:05;;;;;;;11.12;7.87;;;;;;;11.19;85.21;98331.77;1744777;82;21391;-81
2021/09/26 06:02:36;;;;;;;9.68;7.60;;;;;;;11.22;85.01;98338.29;1761036;80;21443;-81
2021/09/26 06:05:07;;;;;;;10.80;7.33;;;;;;;11.25;84.82;98337.34;1744914;82;21014;-81
2021/09/26 06:07:34;;;;;;;11.53;7.65;;;;;;;11.29;85.01;98342.98;1744797;82;21006;-81
2021/09/26 06:10:02;;;;;;;10.08;7.50;;;;;;;11.33;84.77;98353.05;1744771;82;20974;-81
2021/09/26 06:12:29;;;;;;;11.78;8.43;;;;;;;11.37;84.76;98349.88;1752745;81;21005;-81
2021/09/26 06:14:57;;;;;;;13.20;8.35;;;;;;;11.40;84.74;98353.77;1744841;80;21030;-81
2021/09/26 06:17:23;;;;;;;14.45;9.48;;;;;;;11.43;84.65;98355.90;1744842;82;21006;-81
2021/09/26 06:19:52;;;;;;;17.85;10.28;;;;;;;11.49;85.07;98356.16;1755406;81;21035;-80
2021/09/26 06:22:20;;;;;;;20.55;12.30;;;;;;;11.53;84.93;98359.59;1755887;80;20959;-81
2021/09/26 06:24:48;;;;;;;23.75;13.00;;;;;;;11.57;84.72;98354.18;1749633;82;21047;-80
2021/09/26 06:27:14;;;;;;;24.67;14.07;;;;;;;11.63;84.61;98357.13;1736422;82;21447;-80
2021/09/26 06:29:41;;;;;;;25.97;15.30;;;;;;;11.70;84.53;98357.36;1764053;80;20968;-81
2021/09/26 06:32:08;;;;;;;26.20;15.15;;;;;;;11.74;84.57;98351.05;1759744;81;20955;-80
2021/09/26 06:34:36;;;;;;;15.25;9.30;;;;;;;11.82;84.41;98352.59;1745300;81;21455;-80
2021/09/26 06:37:04;;;;;;;12.60;8.00;;;;;;;11.89;84.51;98363.00;1746129;81;20971;-81
2021/09/26 06:39:34;;;;;;;12.68;8.38;;;;;;;11.96;84.00;98356.20;1744676;82;21033;-81
2021/09/26 06:42:02;;;;;;;12.58;8.53;;;;;;;12.05;84.10;98359.06;1752857;81;21042;-80
2021/09/26 06:44:28;;;;;;;10.48;7.92;;;;;;;12.12;83.86;98358.83;1775451;81;20975;-81
2021/09/26 06:46:55;;;;;;;13.28;7.87;;;;;;;12.21;84.04;98359.00;1757499;81;21431;-81
2021/09/26 06:49:21;;;;;;;9.65;7.62;;;;;;;12.29;83.72;98361.42;1744875;82;21026;-82
2021/09/26 06:51:48;;;;;;;9.95;7.37;;;;;;;12.38;83.55;98364.28;1750333;81;20963;-82
2021/09/26 06:54:14;;;;;;;12.65;8.25;;;;;;;12.48;83.44;98364.40;1775417;81;21049;-82
2021/09/26 06:56:41;;;;;;;10.38;8.40;;;;;;;12.57;83.31;98363.23;1775396;81;20958;-82
2021/09/26 06:59:07;;;;;;;11.68;8.70;;;;;;;12.67;83.16;98363.34;1754590;81;21026;-82
2021/09/26 07:01:34;;;;;;;10.93;8.28;;;;;;;12.80;82.94;98358.97;1746884;81;21014;-82
2021/09/26 07:04:01;;;;;;;12.13;8.18;;;;;;;12.92;82.83;98362.53;1775514;81;20999;-82
2021/09/26 07:06:28;;;;;;;24.95;16.00;;;;;;;13.03;82.70;98363.52;1775309;81;21431;-82
2021/09/26 07:08:54;;;;;;;41.77;25.62;;;;;;;13.17;82.65;98367.51;1775668;81;21009;-81
2021/09/26 07:11:23;;;;;;;83.52;52.13;;;;;;;13.29;82.51;98364.41;1753097;80;21050;-81
2021/09/26 07:13:49;;;;;;;50.08;32.67;;;;;;;13.41;82.32;98363.11;1774011;81;20966;-82
2021/09/26 07:16:17;;;;;;;14.53;11.20;;;;;;;13.56;81.71;98371.06;1775499;81;21023;-82
2021/09/26 07:18:43;;;;;;;15.25;9.15;;;;;;;13.70;80.70;98363.89;1775640;81;21054;-82
2021/09/26 07:21:13;;;;;;;12.18;9.00;;;;;;;13.86;81.73;98367.32;1775795;81;21042;-81
2021/09/26 07:23:38;;;;;;;11.20;8.75;;;;;;;14.00;81.30;98372.16;1762881;80;20993;-82
2021/09/26 07:26:05;;;;;;;12.30;8.38;;;;;;;14.11;81.02;98373.94;1765401;81;21055;-82
2021/09/26 07:28:32;;;;;;;11.40;9.08;;;;;;;14.23;80.59;98380.60;1765234;80;21015;-82
2021/09/26 07:30:59;;;;;;;13.50;9.20;;;;;;;14.35;80.73;98370.38;1758096;80;21037;-81
2021/09/26 07:33:25;;;;;;;12.20;8.65;;;;;;;14.46;79.82;98377.97;1769325;80;20975;-82
2021/09/26 07:35:53;;;;;;;12.18;9.40;;;;;;;14.54;79.84;98377.21;1775102;81;20955;-82
2021/09/26 07:38:19;;;;;;;12.20;9.60;;;;;;;14.64;79.64;98376.36;1775390;81;21006;-82
2021/09/26 07:40:46;;;;;;;12.25;10.30;;;;;;;14.71;79.02;98378.33;1768235;81;20995;-82
2021/09/26 07:43:13;;;;;;;12.43;10.13;;;;;;;14.76;78.92;98378.58;1766435;80;21026;-81
2021/09/26 07:45:39;;;;;;;14.63;11.93;;;;;;;14.84;78.39;98370.72;1775228;81;21415;-81
2021/09/26 07:48:06;;;;;;;20.02;11.83;;;;;;;14.92;78.33;98376.62;1775494;81;21006;-81
2021/09/26 07:50:33;;;;;;;15.75;10.20;;;;;;;15.00;78.09;98373.62;1775500;81;20967;-81
2021/09/26 07:52:59;;;;;;;15.95;10.82;;;;;;;15.06;77.84;98376.03;1763091;80;21012;-81
2021/09/26 07:55:26;;;;;;;16.05;11.22;;;;;;;15.13;77.50;98376.65;1765033;81;21016;-81
2021/09/26 07:57:52;;;;;;;14.25;11.35;;;;;;;15.18;76.84;98374.65;1765317;81;20968;-81
2021/09/26 08:00:19;;;;;;;16.25;10.88;;;;;;;15.25;77.07;98374.80;1765187;81;22175;-81
2021/09/26 08:02:46;;;;;;;16.50;11.08;;;;;;;15.34;76.84;98368.65;1755022;81;21005;-82
2021/09/26 08:05:12;;;;;;;13.40;9.90;;;;;;;15.41;76.49;98372.80;1764376;80;21027;-82
2021/09/26 08:07:41;;;;;;;13.78;9.60;;;;;;;15.46;75.96;98372.14;1757070;82;21402;-82
2021/09/26 08:10:09;;;;;;;13.08;9.50;;;;;;;15.52;75.06;98374.98;1750479;82;20991;-82
2021/09/26 08:12:36;;;;;;;13.05;9.10;;;;;;;15.57;75.55;98373.86;1760591;81;20974;-82
2021/09/26 08:15:05;;;;;;;14.90;9.68;;;;;;;15.63;75.18;98372.73;1765305;80;21044;-82
2021/09/26 08:17:33;;;;;;;15.80;10.95;;;;;;;15.70;75.05;98370.66;1744940;82;21006;-82
2021/09/26 08:19:59;;;;;;;16.10;11.73;;;;;;;15.74;74.82;98365.55;1750331;82;21069;-82
2021/09/26 08:22:27;;;;;;;14.43;10.38;;;;;;;15.81;74.76;98369.70;1761144;80;20948;-82
2021/09/26 08:24:56;;;;;;;12.58;9.38;;;;;;;15.89;73.72;98371.14;1766695;81;20991;-82
2021/09/26 08:27:24;;;;;;;13.03;9.73;;;;;;;15.94;74.26;98364.70;1751065;81;21385;-82
2021/09/26 08:29:51;;;;;;;12.63;10.03;;;;;;;16.01;74.02;98365.73;1736638;82;21480;-82
2021/09/26 08:32:17;;;;;;;12.45;7.92;;;;;;;16.05;73.87;98364.66;1780409;80;20927;-82
2021/09/26 08:34:44;;;;;;;13.43;8.85;;;;;;;16.13;73.48;98360.30;1763716;81;21023;-82
2021/09/26 08:37:11;;;;;;;11.03;8.28;;;;;;;16.20;73.16;98359.09;1736567;82;21447;-82
2021/09/26 08:39:37;;;;;;;10.45;8.43;;;;;;;16.29;72.64;98356.44;1744980;82;21023;-82
2021/09/26 08:42:04;;;;;;;9.68;7.67;;;;;;;16.38;72.92;98352.00;1771001;81;21018;-82
2021/09/26 08:44:32;;;;;;;10.13;7.62;;;;;;;16.45;72.67;98348.56;1775473;81;21506;-82
2021/09/26 08:46:59;;;;;;;12.47;8.00;;;;;;;16.50;72.05;98351.39;1744418;82;21364;-82
2021/09/26 08:49:25;;;;;;;10.58;7.40;;;;;;;16.58;72.05;98342.14;1744971;82;21062;-82
2021/09/26 08:51:54;;;;;;;9.43;7.30;;;;;;;16.67;72.16;98347.05;1768608;81;20987;-82
2021/09/26 08:54:21;;;;;;;10.68;8.30;;;;;;;16.73;71.56;98342.72;1775424;81;21022;-82
2021/09/26 08:56:48;;;;;;;10.98;8.40;;;;;;;16.83;71.74;98340.93;1752699;81;21033;-82
2021/09/26 08:59:15;;;;;;;9.23;7.85;;;;;;;16.92;71.03;98347.17;1747016;81;20962;-82
2021/09/26 09:01:42;;;;;;;8.75;7.25;;;;;;;16.99;71.35;98341.89;1765600;81;20988;-82
2021/09/26 09:04:08;;;;;;;10.05;7.25;;;;;;;17.08;70.76;98341.95;1765302;80;21039;-79
2021/09/26 09:06:47;;;;;;;10.13;8.08;;;;;;;17.17;70.26;98339.27;1765215;81;20996;-80
2021/09/26 09:09:19;;;;;;;11.00;7.30;;;;;;;17.28;70.15;98337.38;1765156;81;21004;-82
2021/09/26 09:12:04;;;;;;;9.90;6.97;;;;;;;17.39;69.22;98335.46;1758353;81;20988;-81
2021/09/26 09:15:02;;;;;;;14.00;7.17;;;;;;;17.49;69.87;98331.84;1764878;81;21012;-82
2021/09/26 09:17:39;;;;;;;10.95;7.20;;;;;;;17.60;68.36;98329.45;1765259;81;21016;-82
2021/09/26 09:20:13;;;;;;;10.65;6.47;;;;;;;17.74;69.42;98327.39;1765216;81;21040;-82
2021/09/26 09:22:41;;;;;;;10.05;7.42;;;;;;;17.83;67.09;98329.16;1723957;81;21518;-82
2021/09/26 09:25:34;;;;;;;10.20;7.53;;;;;;;17.97;68.62;98333.80;1765154;81;21461;-82
2021/09/26 09:28:08;;;;;;;11.10;7.60;;;;;;;18.07;67.43;98332.37;1765179;80;20996;-82
2021/09/26 09:30:48;;;;;;;10.18;7.85;;;;;;;18.22;66.68;98330.64;1761449;81;21017;-82
2021/09/26 09:33:16;;;;;;;10.08;7.28;;;;;;;18.33;66.49;98328.70;1756958;81;20984;-82
2021/09/26 09:35:47;;;;;;;10.05;7.40;;;;;;;18.43;66.75;98329.91;1765172;81;21063;-82
2021/09/26 09:38:34;;;;;;;10.55;7.53;;;;;;;18.56;67.54;98327.89;1765208;81;21028;-82
2021/09/26 09:41:01;;;;;;;10.70;6.62;;;;;;;18.65;67.06;98330.05;1742414;80;21018;-82
2021/09/26 09:43:29;;;;;;;9.15;6.95;;;;;;;18.77;65.61;98324.42;1750533;81;21019;-81
2021/09/26 09:46:02;;;;;;;9.08;6.65;;;;;;;18.89;66.38;98326.02;1765343;81;21016;-80
2021/09/26 09:48:30;;;;;;;10.23;7.30;;;;;;;18.98;65.06;98324.14;1765180;81;21378;-82
2021/09/26 09:51:06;;;;;;;8.08;6.28;;;;;;;19.10;65.20;98318.55;1775137;81;21392;-82
2021/09/26 09:53:47;;;;;;;8.58;6.92;;;;;;;19.22;65.51;98316.46;1775521;81;20984;-82
2021/09/26 09:56:26;;;;;;;11.18;7.05;;;;;;;19.32;64.96;98307.84;1758317;81;21392;-82
2021/09/26 09:58:56;;;;;;;10.28;7.03;;;;;;;19.41;64.82;98306.41;1770002;81;21416;-82
2021/09/26 10:01:31;;;;;;;8.60;6.80;;;;;;;19.50;63.84;98299.13;1775378;81;21050;-81
2021/09/26 10:04:02;;;;;;;13.22;7.03;;;;;;;19.61;64.17;98297.13;1775310;81;21428;-81
2021/09/26 10:06:40;;;;;;;9.25;6.35;;;;;;;19.73;63.84;98299.04;1775373;81;21034;-81
2021/09/26 10:09:26;;;;;;;9.40;6.40;;;;;;;19.82;64.17;98297.62;1764583;80;21395;-80
2021/09/26 10:12:00;;;;;;;7.95;6.42;;;;;;;19.92;61.42;98294.73;1764863;81;21063;-81
2021/09/26 10:14:31;;;;;;;8.05;6.92;;;;;;;20.04;62.73;98293.59;1765242;81;21449;-79
2021/09/26 10:17:01;;;;;;;10.32;6.30;;;;;;;20.18;61.90;98290.88;1764347;81;20972;-81
2021/09/26 10:19:30;;;;;;;8.43;6.05;;;;;;;20.31;62.39;98284.21;1746285;80;20989;-81
2021/09/26 10:22:00;;;;;;;6.58;5.75;;;;;;;20.45;62.43;98283.80;1715334;83;21076;-81
2021/09/26 10:24:34;;;;;;;8.35;5.90;;;;;;;20.60;61.61;98286.44;1715229;84;21491;-81
2021/09/26 10:27:08;;;;;;;7.28;4.97;;;;;;;20.76;61.37;98284.44;1717426;81;21184;-81
2021/09/26 10:29:36;;;;;;;6.25;4.87;;;;;;;20.95;60.69;98275.16;1775368;81;21423;-81
2021/09/26 10:32:07;;;;;;;7.50;5.50;;;;;;;21.49;59.74;98266.06;1764682;81;20949;-81
2021/09/26 10:34:34;;;;;;;7.53;5.15;;;;;;;22.48;59.97;98260.41;1765119;81;21023;-81
2021/09/26 10:37:05;;;;;;;5.97;5.12;;;;;;;23.66;56.87;98252.82;1765372;81;21018;-80
2021/09/26 10:39:33;;;;;;;5.85;4.20;;;;;;;24.85;56.31;98250.05;1747517;82;21065;-80
2021/09/26 10:42:13;;;;;;;4.50;4.10;;;;;;;25.93;52.53;98245.77;1758394;81;21027;-81
2021/09/26 10:44:47;;;;;;;6.37;4.25;;;;;;;26.95;50.65;98231.59;1765350;81;20996;-81
2021/09/26 10:47:23;;;;;;;5.50;4.25;;;;;;;27.99;48.27;98229.54;1758632;80;20972;-81
2021/09/26 10:50:11;;;;;;;4.85;4.20;;;;;;;28.92;45.40;98226.28;1736841;81;21043;-81
2021/09/26 10:52:41;;;;;;;5.92;5.00;;;;;;;29.80;40.90;98225.86;1757818;81;21466;-81
2021/09/26 10:55:27;;;;;;;5.95;4.37;;;;;;;30.49;35.36;98221.33;1764881;81;21411;-81
2021/09/26 10:58:09;;;;;;;5.12;4.10;;;;;;;31.11;38.55;98222.78;1741525;81;20976;-81
2021/09/26 11:00:55;;;;;;;5.12;3.90;;;;;;;31.67;38.06;98216.53;1734471;81;21039;-81
2021/09/26 11:03:42;;;;;;;4.40;4.00;;;;;;;32.15;35.29;98210.20;1735002;82;21373;-81
2021/09/26 11:06:29;;;;;;;4.75;3.80;;;;;;;32.65;35.12;98214.03;1734780;83;20999;-81
2021/09/26 11:09:01;;;;;;;4.92;3.90;;;;;;;33.17;33.30;98198.70;1679208;85;21016;-81
2021/09/26 11:11:49;;;;;;;4.28;3.65;;;;;;;33.31;30.67;98201.66;1700265;84;21087;-80
2021/09/26 11:14:16;;;;;;;5.45;3.95;;;;;;;33.46;31.24;98207.19;1705508;84;21086;-80
2021/09/26 11:16:56;;;;;;;3.80;3.50;;;;;;;33.75;31.25;98196.41;1706457;81;21023;-80
2021/09/26 11:19:26;;;;;;;6.03;5.42;;;;;;;34.13;30.74;98194.06;1733049;83;20988;-80
2021/09/26 11:22:07;;;;;;;4.65;3.87;;;;;;;34.65;30.21;98196.78;1734778;82;20988;-80
2021/09/26 11:24:38;;;;;;;4.80;4.00;;;;;;;34.83;26.26;98191.64;1734830;82;21060;-80
2021/09/26 11:27:16;;;;;;;4.85;3.67;;;;;;;35.05;27.46;98188.88;1734642;82;21063;-80
2021/09/26 11:29:49;;;;;;;4.80;4.28;;;;;;;35.28;28.03;98183.14;1710179;81;20972;-80
2021/09/26 11:32:27;;;;;;;5.75;4.10;;;;;;;35.52;26.59;98179.59;1734405;80;21452;-80
2021/09/26 11:34:58;;;;;;;4.00;3.60;;;;;;;35.70;26.39;98178.77;1705638;83;21477;-80
2021/09/26 11:37:43;;;;;;;4.28;3.85;;;;;;;36.00;26.61;98177.09;1708513;83;21460;-81
2021/09/26 11:40:16;;;;;;;4.00;3.60;;;;;;;36.19;25.74;98179.10;1720732;83;21039;-80